Colebrook, Connecticut
Current Conditions -  °F | °C
As of 9:51 AM on Friday 24 Oct 2014 (Local Time) from KBDL Reporting Station
Overcast Overcast  
Wind Chill: 51°   Ceiling: 3000
Heat Index: 51°   Visibility: 10mi
Dew Point: 44°   Wind: 9mph
Humidity: 77%   Direction: 330°NNW
Pressure: 29.76"   Gusts: NA
Location:  41.99°N, 73.1°W
Report Text: KBDL 241351Z 33008KT 10SM FEW010 BKN030 OVC050 11/07 A2976 RMK AO2 SLP079 T01060067
Loading
Personal Weather Stations






























Interactive Weather Map New forecast layout! Learn more

10-Day Weather Forecast

Advertisements
Track Severe Weather on mobile